Wetterstation Vettwei-Soller: Standort 50 43' 54" Nord - 6 33' 24" Ost
Wetterdaten: aktuell Mittwoch, 17.08.2022 03:45
Datum Zeit Temp. A. Temp. A. min Temp. A. max Feuchte A. Luftdruck Regen Wind Richtung Richtung Sonnenschein Zeit Regen ET UV Solar Taupunkt Windchill Windben
17.08.2022 03:45 19,4 C 19,3 C 19,4 C 76 % 1009,9 hPa 0,0 l/m 3,4 km/h (1 Bft) S-SW 193 0 min 0 min 0,000 mm 0,0 UV-I 0 W/m 15,1 C 19,4 C 6,4 km/h (2 Bft)
17.08.2022 03:30 19,3 C 19,3 C 19,6 C 76 % 1009,7 hPa 0,0 l/m 2,4 km/h (1 Bft) S-SW 193 0 min 0 min 0,000 mm 0,0 UV-I 0 W/m 15,0 C 19,3 C 4,8 km/h (1 Bft)
17.08.2022 03:15 19,4 C 19,3 C 19,4 C 76 % 1009,8 hPa 0,0 l/m 0,9 km/h (0 Bft) S-SW 193 0 min 0 min 0,000 mm 0,0 UV-I 0 W/m 15,1 C 19,4 C 3,2 km/h (1 Bft)
17.08.2022 03:00 19,4 C 19,4 C 19,5 C 76 % 1009,9 hPa 0,0 l/m 1,3 km/h (1 Bft) S-SW 193 0 min 0 min 0,025 mm 0,0 UV-I 0 W/m 15,1 C 19,4 C 4,8 km/h (1 Bft)
17.08.2022 02:45 19,4 C 19,4 C 19,8 C 75 % 1009,9 hPa 0,0 l/m 1,0 km/h (0 Bft) S-SW 193 0 min 0 min 0,000 mm 0,0 UV-I 0 W/m 14,8 C 19,4 C 4,8 km/h (1 Bft)
17.08.2022 02:30 19,8 C 19,8 C 19,8 C 73 % 1010,1 hPa 0,0 l/m 1,6 km/h (1 Bft) S-SW 193 0 min 0 min 0,000 mm 0,0 UV-I 0 W/m 14,8 C 19,8 C 4,8 km/h (1 Bft)
17.08.2022 02:15 19,8 C 19,8 C 19,9 C 73 % 1010,2 hPa 0,0 l/m 1,5 km/h (1 Bft) S-SW 193 0 min 0 min 0,000 mm 0,0 UV-I 0 W/m 14,8 C 19,8 C 4,8 km/h (1 Bft)
17.08.2022 02:00 19,9 C 19,8 C 20,0 C 73 % 1010,2 hPa 0,0 l/m 2,3 km/h (1 Bft) S-SW 193 0 min 0 min 0,026 mm 0,0 UV-I 0 W/m 14,9 C 19,9 C 4,8 km/h (1 Bft)
17.08.2022 01:45 20,0 C 20,0 C 20,2 C 73 % 1010,3 hPa 0,0 l/m 2,7 km/h (1 Bft) S-SW 193 0 min 0 min 0,000 mm 0,0 UV-I 0 W/m 15,0 C 20,0 C 4,8 km/h (1 Bft)
17.08.2022 01:30 20,2 C 20,0 C 20,2 C 72 % 1010,4 hPa 0,0 l/m 3,6 km/h (1 Bft) S-SW 193 0 min 0 min 0,000 mm 0,0 UV-I 0 W/m 15,0 C 20,2 C 6,4 km/h (2 Bft)
17.08.2022 01:15 20,1 C 19,9 C 20,1 C 73 % 1010,6 hPa 0,0 l/m 3,9 km/h (1 Bft) S-SW 193 0 min 0 min 0,000 mm 0,0 UV-I 0 W/m 15,1 C 20,1 C 6,4 km/h (2 Bft)
17.08.2022 01:00 20,0 C 19,9 C 20,1 C 74 % 1010,7 hPa 0,0 l/m 2,5 km/h (1 Bft) S 190 0 min 0 min 0,025 mm 0,0 UV-I 0 W/m 15,2 C 20,0 C 6,4 km/h (2 Bft)
17.08.2022 00:45 20,1 C 20,1 C 20,4 C 73 % 1010,7 hPa 0,0 l/m 2,4 km/h (1 Bft) S 190 0 min 0 min 0,000 mm 0,0 UV-I 0 W/m 15,1 C 20,1 C 6,4 km/h (2 Bft)
17.08.2022 00:30 20,4 C 20,4 C 20,8 C 73 % 1010,5 hPa 0,0 l/m 2,5 km/h (1 Bft) S 190 0 min 0 min 0,000 mm 0,0 UV-I 0 W/m 15,4 C 20,4 C 4,8 km/h (1 Bft)
17.08.2022 00:15 20,8 C 20,8 C 21,1 C 72 % 1010,5 hPa 0,0 l/m 3,4 km/h (1 Bft) S 190 0 min 0 min 0,000 mm 0,0 UV-I 0 W/m 15,6 C 20,8 C 6,4 km/h (2 Bft)
17.08.2022 00:00 21,0 C 20,9 C 21,2 C 71 % 1010,7 hPa 0,0 l/m 1,6 km/h (1 Bft) S 186 0 min 0 min 0,000 mm 0,0 UV-I 0 W/m 15,5 C 21,0 C 4,8 km/h (1 Bft)
16.08.2022 23:45 21,2 C 21,2 C 21,5 C 71 % 1010,6 hPa 0,0 l/m 1,7 km/h (1 Bft) S 186 0 min 0 min 0,000 mm 0,0 UV-I 0 W/m 15,7 C 21,2 C 4,8 km/h (1 Bft)
16.08.2022 23:30 21,5 C 21,4 C 21,6 C 70 % 1010,5 hPa 0,0 l/m 2,1 km/h (1 Bft) S 186 0 min 0 min 0,000 mm 0,0 UV-I 0 W/m 15,8 C 21,5 C 8,0 km/h (2 Bft)
16.08.2022 23:15 21,6 C 21,6 C 22,3 C 70 % 1010,7 hPa 0,0 l/m 2,8 km/h (1 Bft) S 171 0 min 0 min 0,000 mm 0,0 UV-I 0 W/m 15,9 C 21,6 C 8,0 km/h (2 Bft)
16.08.2022 23:00 22,3 C 22,3 C 22,8 C 68 % 1010,4 hPa 0,0 l/m 1,4 km/h (1 Bft) S 171 0 min 0 min 0,050 mm 0,0 UV-I 0 W/m 16,1 C 22,3 C 3,2 km/h (1 Bft)
16.08.2022 22:45 22,8 C 22,6 C 22,9 C 65 % 1010,6 hPa 0,0 l/m 2,9 km/h (1 Bft) S 171 0 min 0 min 0,000 mm 0,0 UV-I 0 W/m 15,9 C 22,8 C 8,0 km/h (2 Bft)
16.08.2022 22:30 22,7 C 22,4 C 22,7 C 67 % 1010,7 hPa 0,0 l/m 2,0 km/h (1 Bft) SO 142 0 min 0 min 0,000 mm 0,0 UV-I 0 W/m 16,2 C 22,7 C 4,8 km/h (1 Bft)
16.08.2022 22:15 22,5 C 22,5 C 22,8 C 70 % 1010,5 hPa 0,0 l/m 2,2 km/h (1 Bft) O-SO 109 0 min 0 min 0,000 mm 0,0 UV-I 0 W/m 16,7 C 22,5 C 4,8 km/h (1 Bft)
16.08.2022 22:00 22,8 C 22,8 C 23,1 C 69 % 1010,3 hPa 0,0 l/m 1,2 km/h (1 Bft) O-SO 109 0 min 0 min 0,000 mm 0,0 UV-I 0 W/m 16,8 C 22,8 C 3,2 km/h (1 Bft)
16.08.2022 21:45 23,1 C 23,1 C 23,5 C 69 % 1010,1 hPa 0,0 l/m 0,9 km/h (0 Bft) O-SO 109 0 min 0 min 0,000 mm 0,0 UV-I 0 W/m 17,1 C 23,1 C 3,2 km/h (1 Bft)
16.08.2022 21:30 23,5 C 23,5 C 23,9 C 68 % 1009,9 hPa 0,0 l/m 1,0 km/h (0 Bft) O-SO 109 0 min 0 min 0,000 mm 0,0 UV-I 0 W/m 17,2 C 23,5 C 3,2 km/h (1 Bft)
16.08.2022 21:15 23,9 C 23,9 C 24,1 C 66 % 1009,9 hPa 0,0 l/m 0,6 km/h (0 Bft) O-SO 109 0 min 0 min 0,000 mm 0,0 UV-I 0 W/m 17,1 C 23,9 C 3,2 km/h (1 Bft)
16.08.2022 21:00 24,0 C 23,9 C 24,3 C 65 % 1009,5 hPa 0,0 l/m 1,8 km/h (1 Bft) O-SO 109 0 min 0 min 0,026 mm 0,0 UV-I 0 W/m 17,0 C 24,0 C 4,8 km/h (1 Bft)
16.08.2022 20:45 24,3 C 24,3 C 24,9 C 66 % 1009,5 hPa 0,0 l/m 1,7 km/h (1 Bft) O-SO 109 0 min 0 min 0,000 mm 0,0 UV-I 0 W/m 17,5 C 24,3 C 4,8 km/h (1 Bft)
16.08.2022 20:30 24,9 C 24,8 C 25,1 C 62 % 1009,5 hPa 0,0 l/m 1,4 km/h (1 Bft) O-SO 107 0 min 0 min 0,000 mm 0,0 UV-I 7 W/m 17,1 C 24,9 C 3,2 km/h (1 Bft)
16.08.2022 20:15 25,1 C 25,1 C 25,5 C 63 % 1009,4 hPa 0,0 l/m 1,9 km/h (1 Bft) O-SO 107 0 min 0 min 0,000 mm 0,0 UV-I 19 W/m 17,5 C 25,1 C 4,8 km/h (1 Bft)
16.08.2022 20:00 25,5 C 25,4 C 26,1 C 62 % 1009,4 hPa 0,0 l/m 0,6 km/h (0 Bft) O-SO 107 0 min 0 min 0,051 mm 0,0 UV-I 39 W/m 17,7 C 25,5 C 3,2 km/h (1 Bft)
16.08.2022 19:45 26,1 C 26,0 C 26,7 C 60 % 1009,3 hPa 0,0 l/m 0,1 km/h (0 Bft) O-SO 107 0 min 0 min 0,000 mm 0,0 UV-I 44 W/m 17,7 C 26,1 C 1,6 km/h (1 Bft)
16.08.2022 19:30 26,7 C 26,5 C 26,7 C 54 % 1009,4 hPa 0,0 l/m 0,7 km/h (0 Bft) O-SO 107 0 min 0 min 0,000 mm 0,0 UV-I 49 W/m 16,6 C 26,7 C 3,2 km/h (1 Bft)
16.08.2022 19:15 26,7 C 26,7 C 27,3 C 57 % 1009,4 hPa 0,0 l/m 0,4 km/h (0 Bft) O-SO 107 0 min 0 min 0,000 mm 0,0 UV-I 40 W/m 17,5 C 26,7 C 3,2 km/h (1 Bft)
16.08.2022 19:00 27,3 C 27,3 C 27,7 C 51 % 1009,5 hPa 0,0 l/m 0,9 km/h (0 Bft) O-SO 107 0 min 0 min 0,127 mm 0,0 UV-I 44 W/m 16,3 C 27,3 C 4,8 km/h (1 Bft)
16.08.2022 18:45 27,7 C 27,7 C 28,2 C 48 % 1009,4 hPa 0,0 l/m 1,8 km/h (1 Bft) O-SO 107 0 min 0 min 0,000 mm 0,0 UV-I 54 W/m 15,7 C 27,7 C 4,8 km/h (1 Bft)
16.08.2022 18:30 28,2 C 28,0 C 28,3 C 49 % 1009,5 hPa 0,0 l/m 1,4 km/h (1 Bft) O 93 0 min 0 min 0,000 mm 0,6 UV-I 113 W/m 16,5 C 28,2 C 6,4 km/h (2 Bft)
16.08.2022 18:15 28,3 C 28,3 C 28,8 C 47 % 1009,5 hPa 0,0 l/m 3,5 km/h (1 Bft) N-NW 336 0 min 0 min 0,279 mm 0,8 UV-I 179 W/m 15,9 C 28,3 C 9,7 km/h (2 Bft)
16.08.2022 18:00 28,8 C 28,7 C 29,1 C 46 % 1009,5 hPa 0,0 l/m 4,5 km/h (1 Bft) N-NO 28 15 min 0 min 0,000 mm 1,1 UV-I 269 W/m 16,0 C 28,8 C 14,5 km/h (3 Bft)
16.08.2022 17:45 29,1 C 28,5 C 29,1 C 46 % 1009,5 hPa 0,0 l/m 3,4 km/h (1 Bft) N-NW 336 15 min 0 min 0,000 mm 1,4 UV-I 355 W/m 16,3 C 29,1 C 9,7 km/h (2 Bft)
16.08.2022 17:30 28,5 C 28,4 C 28,7 C 48 % 1009,5 hPa 0,0 l/m 3,5 km/h (1 Bft) N 360 15 min 0 min 0,000 mm 1,4 UV-I 316 W/m 16,4 C 28,5 C 12,9 km/h (3 Bft)
16.08.2022 17:15 28,6 C 28,3 C 28,7 C 47 % 1009,5 hPa 0,0 l/m 3,3 km/h (1 Bft) W 277 15 min 0 min 0,000 mm 1,6 UV-I 343 W/m 16,2 C 28,6 C 8,0 km/h (2 Bft)
16.08.2022 17:00 28,6 C 28,3 C 28,6 C 48 % 1009,5 hPa 0,0 l/m 3,8 km/h (1 Bft) W-SW 251 15 min 0 min 0,254 mm 2,1 UV-I 429 W/m 16,5 C 28,6 C 12,9 km/h (3 Bft)
16.08.2022 16:45 28,4 C 28,0 C 28,6 C 48 % 1009,6 hPa 0,0 l/m 5,0 km/h (1 Bft) NW 313 15 min 0 min 0,000 mm 2,3 UV-I 485 W/m 16,3 C 28,4 C 12,9 km/h (3 Bft)
16.08.2022 16:30 28,0 C 27,2 C 28,0 C 49 % 1009,6 hPa 0,0 l/m 2,6 km/h (1 Bft) W-NW 299 15 min 0 min 0,000 mm 2,4 UV-I 575 W/m 16,3 C 28,0 C 6,4 km/h (2 Bft)
16.08.2022 16:15 27,2 C 27,2 C 27,6 C 50 % 1009,8 hPa 0,0 l/m 1,8 km/h (1 Bft) SO 143 0 min 0 min 0,178 mm 1,2 UV-I 165 W/m 15,9 C 27,2 C 6,4 km/h (2 Bft)
16.08.2022 16:00 27,4 C 27,4 C 27,7 C 50 % 1009,7 hPa 0,0 l/m 1,9 km/h (1 Bft) NO 49 0 min 0 min 0,000 mm 1,7 UV-I 139 W/m 16,0 C 27,4 C 6,4 km/h (2 Bft)
16.08.2022 15:45 27,6 C 27,5 C 27,7 C 48 % 1009,7 hPa 0,0 l/m 2,7 km/h (1 Bft) W 263 0 min 0 min 0,000 mm 2,2 UV-I 239 W/m 15,6 C 27,6 C 8,0 km/h (2 Bft)
16.08.2022 15:30 27,5 C 27,2 C 27,5 C 52 % 1009,8 hPa 0,0 l/m 2,9 km/h (1 Bft) N-NW 348 0 min 0 min 0,000 mm 2,2 UV-I 274 W/m 16,7 C 27,5 C 6,4 km/h (2 Bft)
16.08.2022 15:15 27,2 C 27,0 C 27,2 C 52 % 1009,7 hPa 0,0 l/m 4,4 km/h (1 Bft) W 275 0 min 0 min 0,000 mm 2,0 UV-I 213 W/m 16,5 C 27,2 C 9,7 km/h (2 Bft)
16.08.2022 15:00 27,2 C 27,1 C 27,2 C 52 % 1009,7 hPa 0,0 l/m 4,6 km/h (1 Bft) N-NW 343 0 min 0 min 0,279 mm 2,0 UV-I 123 W/m 16,5 C 27,2 C 11,3 km/h (2 Bft)
16.08.2022 14:45 27,2 C 27,2 C 27,9 C 53 % 1009,8 hPa 0,0 l/m 6,7 km/h (2 Bft) N 355 0 min 0 min 0,000 mm 2,0 UV-I 158 W/m 16,8 C 27,2 C 16,1 km/h (3 Bft)
16.08.2022 14:30 27,9 C 27,4 C 28,4 C 52 % 1009,8 hPa 0,0 l/m 4,1 km/h (1 Bft) NW 323 0 min 0 min 0,000 mm 2,7 UV-I 225 W/m 17,1 C 27,9 C 14,5 km/h (3 Bft)
16.08.2022 14:15 27,4 C 27,0 C 27,5 C 52 % 1009,8 hPa 0,0 l/m 2,3 km/h (1 Bft) O-SO 110 15 min 0 min 0,000 mm 4,2 UV-I 847 W/m 16,7 C 27,4 C 6,4 km/h (2 Bft)
16.08.2022 14:00 27,5 C 27,1 C 27,9 C 52 % 1009,9 hPa 0,0 l/m 2,7 km/h (1 Bft) O 100 0 min 0 min 0,457 mm 2,2 UV-I 218 W/m 16,7 C 27,5 C 9,7 km/h (2 Bft)
16.08.2022 13:45 27,1 C 27,1 C 28,6 C 52 % 1009,9 hPa 0,0 l/m 3,9 km/h (1 Bft) O-SO 105 15 min 0 min 0,000 mm 4,7 UV-I 735 W/m 16,4 C 27,1 C 11,3 km/h (2 Bft)
16.08.2022 13:30 28,3 C 26,8 C 28,3 C 53 % 1009,8 hPa 0,0 l/m 3,6 km/h (1 Bft) O-NO 78 15 min 0 min 0,000 mm 5,3 UV-I 809 W/m 17,8 C 28,3 C 14,5 km/h (3 Bft)
16.08.2022 13:15 27,5 C 26,7 C 27,5 C 56 % 1009,8 hPa 0,0 l/m 3,8 km/h (1 Bft) O 90 15 min 0 min 0,000 mm 4,7 UV-I 940 W/m 17,9 C 27,5 C 9,7 km/h (2 Bft)
16.08.2022 13:00 26,7 C 26,3 C 26,8 C 57 % 1009,8 hPa 0,0 l/m 4,0 km/h (1 Bft) NO 36 15 min 0 min 0,432 mm 5,0 UV-I 745 W/m 17,5 C 26,7 C 9,7 km/h (2 Bft)
16.08.2022 12:45 26,3 C 25,4 C 26,3 C 60 % 1009,8 hPa 0,0 l/m 2,1 km/h (1 Bft) NO 37 15 min 0 min 0,000 mm 4,9 UV-I 740 W/m 17,9 C 26,3 C 8,0 km/h (2 Bft)
16.08.2022 12:30 26,1 C 25,7 C 26,2 C 58 % 1009,7 hPa 0,0 l/m 4,3 km/h (1 Bft) O-NO 65 15 min 0 min 0,000 mm 4,5 UV-I 687 W/m 17,2 C 26,1 C 8,0 km/h (2 Bft)
16.08.2022 12:15 25,7 C 25,6 C 26,0 C 60 % 1009,7 hPa 0,0 l/m 3,9 km/h (1 Bft) N-NO 21 15 min 0 min 0,000 mm 3,8 UV-I 587 W/m 17,3 C 25,7 C 11,3 km/h (2 Bft)
16.08.2022 12:00 25,9 C 25,6 C 25,9 C 61 % 1009,7 hPa 0,0 l/m 5,0 km/h (1 Bft) N 10 15 min 0 min 0,407 mm 3,9 UV-I 638 W/m 17,8 C 25,9 C 9,7 km/h (2 Bft)
16.08.2022 11:45 25,7 C 25,6 C 25,8 C 63 % 1009,8 hPa 0,0 l/m 4,3 km/h (1 Bft) N 11 15 min 0 min 0,000 mm 3,8 UV-I 679 W/m 18,1 C 25,7 C 9,7 km/h (2 Bft)
16.08.2022 11:30 25,6 C 24,8 C 25,6 C 62 % 1009,9 hPa 0,0 l/m 3,4 km/h (1 Bft) N 5 15 min 0 min 0,000 mm 3,8 UV-I 647 W/m 17,8 C 25,6 C 8,0 km/h (2 Bft)
16.08.2022 11:15 24,8 C 24,8 C 25,3 C 65 % 1009,8 hPa 0,0 l/m 3,8 km/h (1 Bft) NO 52 15 min 0 min 0,000 mm 3,4 UV-I 599 W/m 17,8 C 24,8 C 9,7 km/h (2 Bft)
16.08.2022 11:00 24,9 C 24,4 C 24,9 C 65 % 1009,7 hPa 0,0 l/m 2,4 km/h (1 Bft) O-NO 67 15 min 0 min 0,330 mm 3,3 UV-I 622 W/m 17,9 C 24,9 C 6,4 km/h (2 Bft)
16.08.2022 10:45 24,4 C 23,8 C 24,4 C 66 % 1009,7 hPa 0,0 l/m 2,7 km/h (1 Bft) O-NO 78 15 min 0 min 0,000 mm 2,9 UV-I 571 W/m 17,6 C 24,4 C 8,0 km/h (2 Bft)
16.08.2022 10:30 23,8 C 23,4 C 23,8 C 66 % 1009,5 hPa 0,0 l/m 2,0 km/h (1 Bft) NO 46 15 min 0 min 0,000 mm 2,5 UV-I 529 W/m 17,1 C 23,8 C 6,4 km/h (2 Bft)
16.08.2022 10:15 23,5 C 23,2 C 23,6 C 68 % 1009,3 hPa 0,0 l/m 2,0 km/h (1 Bft) O 80 15 min 0 min 0,000 mm 2,1 UV-I 468 W/m 17,2 C 23,5 C 6,4 km/h (2 Bft)
16.08.2022 10:00 23,3 C 22,7 C 23,3 C 69 % 1009,3 hPa 0,0 l/m 0,9 km/h (0 Bft) O-NO 74 15 min 0 min 0,228 mm 1,9 UV-I 462 W/m 17,3 C 23,3 C 4,8 km/h (1 Bft)
16.08.2022 09:45 22,8 C 22,4 C 22,8 C 70 % 1009,3 hPa 0,0 l/m 2,5 km/h (1 Bft) O-NO 76 15 min 0 min 0,000 mm 1,6 UV-I 417 W/m 17,0 C 22,8 C 6,4 km/h (2 Bft)
16.08.2022 09:30 22,4 C 22,1 C 22,5 C 71 % 1009,1 hPa 0,0 l/m 2,2 km/h (1 Bft) O-NO 73 15 min 0 min 0,000 mm 1,4 UV-I 387 W/m 16,9 C 22,4 C 6,4 km/h (2 Bft)
16.08.2022 09:15 22,1 C 21,7 C 22,2 C 71 % 1009,1 hPa 0,0 l/m 1,9 km/h (1 Bft) O 86 15 min 0 min 0,000 mm 1,1 UV-I 325 W/m 16,6 C 22,1 C 6,4 km/h (2 Bft)
16.08.2022 09:00 21,7 C 21,0 C 21,7 C 74 % 1008,9 hPa 0,0 l/m 0,5 km/h (0 Bft) SW 222 15 min 0 min 0,127 mm 0,9 UV-I 239 W/m 16,9 C 21,7 C 3,2 km/h (1 Bft)
16.08.2022 08:45 21,0 C 20,3 C 21,0 C 75 % 1008,9 hPa 0,0 l/m 2,2 km/h (1 Bft) SW 222 15 min 0 min 0,000 mm 0,7 UV-I 216 W/m 16,4 C 21,0 C 6,4 km/h (2 Bft)
16.08.2022 08:30 20,3 C 19,7 C 20,3 C 78 % 1008,8 hPa 0,0 l/m 1,5 km/h (1 Bft) SW 223 0 min 0 min 0,000 mm 0,6 UV-I 162 W/m 16,3 C 20,3 C 4,8 km/h (1 Bft)
16.08.2022 08:15 19,7 C 19,0 C 19,7 C 79 % 1008,7 hPa 0,0 l/m 2,3 km/h (1 Bft) SW 223 15 min 0 min 0,000 mm 0,0 UV-I 172 W/m 16,0 C 19,7 C 4,8 km/h (1 Bft)
16.08.2022 08:00 19,0 C 18,4 C 19,1 C 81 % 1008,6 hPa 0,0 l/m 2,7 km/h (1 Bft) S-SW 203 15 min 0 min 0,051 mm 0,0 UV-I 144 W/m 15,7 C 19,0 C 6,4 km/h (2 Bft)
16.08.2022 07:45 18,4 C 17,8 C 18,4 C 82 % 1008,4 hPa 0,0 l/m 2,1 km/h (1 Bft) S-SW 198 0 min 0 min 0,000 mm 0,0 UV-I 98 W/m 15,3 C 18,4 C 4,8 km/h (1 Bft)
16.08.2022 07:30 17,8 C 17,3 C 17,8 C 84 % 1008,3 hPa 0,0 l/m 1,3 km/h (1 Bft) S-SW 198 0 min 0 min 0,000 mm 0,0 UV-I 81 W/m 15,1 C 17,8 C 4,8 km/h (1 Bft)
16.08.2022 07:15 17,3 C 16,6 C 17,3 C 85 % 1008,4 hPa 0,0 l/m 3,3 km/h (1 Bft) S-SW 198 0 min 0 min 0,000 mm 0,0 UV-I 49 W/m 14,8 C 17,3 C 8,0 km/h (2 Bft)
16.08.2022 07:00 16,6 C 16,4 C 16,6 C 86 % 1008,2 hPa 0,0 l/m 3,9 km/h (1 Bft) S-SW 194 0 min 0 min 0,000 mm 0,0 UV-I 28 W/m 14,2 C 16,6 C 6,4 km/h (2 Bft)
16.08.2022 06:45 16,4 C 16,3 C 16,6 C 86 % 1008,1 hPa 0,0 l/m 2,3 km/h (1 Bft) S 169 0 min 0 min 0,000 mm 0,0 UV-I 14 W/m 14,1 C 16,4 C 6,4 km/h (2 Bft)
16.08.2022 06:30 16,3 C 16,3 C 16,5 C 87 % 1008,2 hPa 0,0 l/m 2,9 km/h (1 Bft) S 169 0 min 0 min 0,000 mm 0,0 UV-I 7 W/m 14,1 C 16,3 C 8,0 km/h (2 Bft)
16.08.2022 06:15 16,4 C 16,4 C 16,8 C 86 % 1008,0 hPa 0,0 l/m 1,5 km/h (1 Bft) S 169 0 min 0 min 0,000 mm 0,0 UV-I 0 W/m 14,1 C 16,4 C 3,2 km/h (1 Bft)
16.08.2022 06:00 16,7 C 16,4 C 16,7 C 85 % 1007,9 hPa 0,0 l/m 0,8 km/h (0 Bft) S 169 0 min 0 min 0,000 mm 0,0 UV-I 0 W/m 14,2 C 16,7 C 6,4 km/h (2 Bft)
16.08.2022 05:45 16,5 C 16,5 C 16,7 C 86 % 1007,8 hPa 0,0 l/m 0,0 km/h (0 Bft) S 169 0 min 0 min 0,000 mm 0,0 UV-I 0 W/m 14,1 C 16,5 C 0,0 km/h (0 Bft)
16.08.2022 05:30 16,7 C 16,6 C 16,8 C 85 % 1007,8 hPa 0,0 l/m 0,1 km/h (0 Bft) S 169 0 min 0 min 0,000 mm 0,0 UV-I 0 W/m 14,2 C 16,7 C 3,2 km/h (1 Bft)
16.08.2022 05:15 16,6 C 16,6 C 16,8 C 86 % 1007,8 hPa 0,0 l/m 0,4 km/h (0 Bft) S 169 0 min 0 min 0,000 mm 0,0 UV-I 0 W/m 14,2 C 16,6 C 3,2 km/h (1 Bft)
16.08.2022 05:00 16,8 C 16,8 C 17,7 C 84 % 1007,6 hPa 0,0 l/m 0,2 km/h (0 Bft) S 169 0 min 0 min 0,026 mm 0,0 UV-I 0 W/m 14,1 C 16,8 C 1,6 km/h (1 Bft)
16.08.2022 04:45 17,7 C 17,7 C 18,1 C 82 % 1007,6 hPa 0,0 l/m 0,3 km/h (0 Bft) S 169 0 min 0 min 0,000 mm 0,0 UV-I 0 W/m 14,6 C 17,7 C 6,4 km/h (2 Bft)
16.08.2022 04:30 18,1 C 18,1 C 19,2 C 80 % 1007,7 hPa 0,0 l/m 1,6 km/h (1 Bft) S 171 0 min 0 min 0,000 mm 0,0 UV-I 0 W/m 14,6 C 18,1 C 9,7 km/h (2 Bft)
16.08.2022 04:15 19,2 C 19,2 C 19,3 C 76 % 1007,6 hPa 0,0 l/m 2,1 km/h (1 Bft) W-SW 242 0 min 0 min 0,000 mm 0,0 UV-I 0 W/m 14,9 C 19,2 C 12,9 km/h (3 Bft)
16.08.2022 04:00 19,3 C 19,3 C 19,6 C 76 % 1007,5 hPa 0,0 l/m 2,1 km/h (1 Bft) S-SW 196 0 min 0 min 0,025 mm 0,0 UV-I 0 W/m 15,0 C 19,3 C 11,3 km/h (2 Bft)
_ Min-Zeit 06:30 06:30 06:30 17:45 04:00 - 05:45 - - - - - - - 06:15 06:30 05:45
Minimum _ 16,3 C 16,3 C 16,5 C 46 % 1007,5 hPa - 0,0 km/h (0 Bft) - - - - - - - 14,1 C 16,3 C 0,0 km/h (0 Bft)
_ Max-Zeit 17:45 18:00 17:45 06:30 22:30 04:00 14:45 - - 08:00 04:00 14:00 13:30 13:15 11:45 17:45 14:45
Maximum _ 29,1 C 28,7 C 29,1 C 87 % 1010,7 hPa 0,0 l/m 6,7 km/h
N (2 Bft)
- - 15 min 0 min 0,457 mm 5,3 UV-I 940 W/m 18,1 C 29,1 C 16,1 km/h
NW (3 Bft)
Durchschnitt _ 22,8 C 22,6 C 23,0 C 67 % 1009,3 hPa #0,0 l/m 2,3 km/h (1 Bft) S-SW - #0 min. #0 min. #0,076 mm 0,0 UV-I 0 W/m 16,0 C 22,8 C 7,1 km/h (2 Bft)